Alvy, West Virginia
Current Conditions -  °F | °C
As of 3:53 PM on Monday 24 Nov 2014 (Local Time) from KCKB Reporting Station
Scattered Clouds Scattered Clouds  
Wind Chill: 68°   Ceiling: Unl
Heat Index: 68°   Visibility: 10mi
Dew Point: 42°   Wind: 17mph
Humidity: 39%   Direction: 260°W
Pressure: 29.57"   Gusts: 26mph
Location:  39.5266°N, 80.6428°W
Report Text: KCKB 242053Z 26015G23KT 10SM SCT100 20/06 A2957 RMK AO2 PK WND 24032/2030 SLP001 T02000056 53025
Loading
Personal Weather Stations






























Interactive Weather Map New forecast layout! Learn more

10-Day Weather Forecast

Advertisements
Track Severe Weather on mobile